sensor_id;sensor_type;location;lat;lon;timestamp;P1;durP1;ratioP1;P2;durP2;ratioP2
1054;SDS011;516;51.482;7.120;2023-07-29T00:00:58;5.77;;;4.20;;
1054;SDS011;516;51.482;7.120;2023-07-29T00:06:47;5.23;;;3.60;;
1054;SDS011;516;51.482;7.120;2023-07-29T00:12:35;10.93;;;3.70;;
1054;SDS011;516;51.482;7.120;2023-07-29T00:18:22;5.83;;;4.23;;
1054;SDS011;516;51.482;7.120;2023-07-29T00:27:32;7.33;;;5.33;;
1054;SDS011;516;51.482;7.120;2023-07-29T00:33:20;7.83;;;5.57;;
1054;SDS011;516;51.482;7.120;2023-07-29T00:39:08;6.30;;;5.33;;
1054;SDS011;516;51.482;7.120;2023-07-29T00:44:55;9.60;;;7.27;;
1054;SDS011;516;51.482;7.120;2023-07-29T00:50:43;6.50;;;5.90;;
1054;SDS011;516;51.482;7.120;2023-07-29T00:56:31;6.43;;;4.70;;
1054;SDS011;516;51.482;7.120;2023-07-29T01:02:19;10.23;;;6.13;;
1054;SDS011;516;51.482;7.120;2023-07-29T01:08:13;5.67;;;5.20;;
1054;SDS011;516;51.482;7.120;2023-07-29T01:14:47;5.50;;;5.00;;
1054;SDS011;516;51.482;7.120;2023-07-29T01:21:14;5.73;;;5.10;;
1054;SDS011;516;51.482;7.120;2023-07-29T01:30:28;8.57;;;5.57;;
1054;SDS011;516;51.482;7.120;2023-07-29T01:36:21;6.60;;;5.70;;
1054;SDS011;516;51.482;7.120;2023-07-29T01:42:10;4.90;;;4.50;;
1054;SDS011;516;51.482;7.120;2023-07-29T01:47:58;6.37;;;5.07;;
1054;SDS011;516;51.482;7.120;2023-07-29T01:53:46;7.53;;;5.50;;
1054;SDS011;516;51.482;7.120;2023-07-29T01:59:34;8.50;;;6.10;;
1054;SDS011;516;51.482;7.120;2023-07-29T02:05:21;7.87;;;4.70;;
1054;SDS011;516;51.482;7.120;2023-07-29T02:11:09;10.20;;;5.30;;
1054;SDS011;516;51.482;7.120;2023-07-29T02:16:57;7.30;;;4.70;;
1054;SDS011;516;51.482;7.120;2023-07-29T02:22:45;4.87;;;4.27;;
1054;SDS011;516;51.482;7.120;2023-07-29T02:28:15;5.67;;;4.90;;
1054;SDS011;516;51.482;7.120;2023-07-29T02:34:03;8.60;;;5.33;;
1054;SDS011;516;51.482;7.120;2023-07-29T02:39:51;5.63;;;4.20;;
1054;SDS011;516;51.482;7.120;2023-07-29T02:45:39;5.10;;;4.13;;
1054;SDS011;516;51.482;7.120;2023-07-29T02:51:27;5.53;;;4.50;;
1054;SDS011;516;51.482;7.120;2023-07-29T02:57:15;10.80;;;4.20;;
1054;SDS011;516;51.482;7.120;2023-07-29T03:03:04;6.77;;;4.30;;
1054;SDS011;516;51.482;7.120;2023-07-29T03:08:52;7.30;;;4.10;;
1054;SDS011;516;51.482;7.120;2023-07-29T03:14:39;8.17;;;4.77;;
1054;SDS011;516;51.482;7.120;2023-07-29T03:20:28;7.27;;;4.30;;
1054;SDS011;516;51.482;7.120;2023-07-29T03:36:06;6.57;;;3.83;;
1054;SDS011;516;51.482;7.120;2023-07-29T03:41:54;15.67;;;5.07;;
1054;SDS011;516;51.482;7.120;2023-07-29T03:47:41;6.77;;;4.43;;
1054;SDS011;516;51.482;7.120;2023-07-29T03:53:10;10.53;;;5.10;;
1054;SDS011;516;51.482;7.120;2023-07-29T03:59:02;6.90;;;4.67;;
1054;SDS011;516;51.482;7.120;2023-07-29T04:04:51;4.77;;;3.93;;
1054;SDS011;516;51.482;7.120;2023-07-29T04:10:38;9.37;;;4.80;;
1054;SDS011;516;51.482;7.120;2023-07-29T04:16:26;5.97;;;5.40;;
1054;SDS011;516;51.482;7.120;2023-07-29T04:22:15;6.07;;;5.40;;
1054;SDS011;516;51.482;7.120;2023-07-29T04:28:04;7.93;;;7.13;;
1054;SDS011;516;51.482;7.120;2023-07-29T04:33:52;9.47;;;5.67;;
1054;SDS011;516;51.482;7.120;2023-07-29T04:39:40;10.60;;;6.13;;
1054;SDS011;516;51.482;7.120;2023-07-29T04:45:30;7.20;;;5.53;;
1054;SDS011;516;51.482;7.120;2023-07-29T04:51:18;6.27;;;5.73;;
1054;SDS011;516;51.482;7.120;2023-07-29T04:57:06;8.43;;;5.90;;
1054;SDS011;516;51.482;7.120;2023-07-29T05:02:53;9.00;;;5.60;;
1054;SDS011;516;51.482;7.120;2023-07-29T05:08:41;7.37;;;5.83;;
1054;SDS011;516;51.482;7.120;2023-07-29T05:14:30;7.50;;;6.67;;
1054;SDS011;516;51.482;7.120;2023-07-29T05:20:18;11.00;;;8.63;;
1054;SDS011;516;51.482;7.120;2023-07-29T05:36:08;11.63;;;10.43;;
1054;SDS011;516;51.482;7.120;2023-07-29T05:41:55;11.57;;;10.47;;
1054;SDS011;516;51.482;7.120;2023-07-29T05:47:43;12.20;;;10.97;;
1054;SDS011;516;51.482;7.120;2023-07-29T05:53:31;12.00;;;10.90;;
1054;SDS011;516;51.482;7.120;2023-07-29T05:59:19;12.37;;;11.17;;
1054;SDS011;516;51.482;7.120;2023-07-29T06:05:07;9.00;;;8.10;;
1054;SDS011;516;51.482;7.120;2023-07-29T06:10:54;9.90;;;7.63;;
1054;SDS011;516;51.482;7.120;2023-07-29T06:16:42;5.40;;;4.90;;
1054;SDS011;516;51.482;7.120;2023-07-29T06:22:32;3.73;;;3.20;;
1054;SDS011;516;51.482;7.120;2023-07-29T06:28:16;3.97;;;3.43;;
1054;SDS011;516;51.482;7.120;2023-07-29T06:34:04;3.73;;;2.97;;
1054;SDS011;516;51.482;7.120;2023-07-29T06:39:59;5.00;;;3.40;;
1054;SDS011;516;51.482;7.120;2023-07-29T06:45:47;5.13;;;3.20;;
1054;SDS011;516;51.482;7.120;2023-07-29T06:51:35;2.77;;;2.50;;
1054;SDS011;516;51.482;7.120;2023-07-29T06:57:23;4.77;;;3.03;;
1054;SDS011;516;51.482;7.120;2023-07-29T07:03:11;3.00;;;2.73;;
1054;SDS011;516;51.482;7.120;2023-07-29T07:08:59;4.83;;;2.30;;
1054;SDS011;516;51.482;7.120;2023-07-29T07:14:47;3.33;;;3.03;;
1054;SDS011;516;51.482;7.120;2023-07-29T07:20:35;2.70;;;2.20;;
1054;SDS011;516;51.482;7.120;2023-07-29T07:36:14;3.13;;;2.93;;
1054;SDS011;516;51.482;7.120;2023-07-29T07:42:02;3.90;;;3.50;;
1054;SDS011;516;51.482;7.120;2023-07-29T07:47:51;3.40;;;3.10;;
1054;SDS011;516;51.482;7.120;2023-07-29T07:53:40;3.93;;;3.63;;
1054;SDS011;516;51.482;7.120;2023-07-29T07:59:29;3.50;;;3.30;;
1054;SDS011;516;51.482;7.120;2023-07-29T08:05:16;3.50;;;3.20;;
1054;SDS011;516;51.482;7.120;2023-07-29T08:11:05;4.93;;;3.77;;
1054;SDS011;516;51.482;7.120;2023-07-29T08:16:53;2.83;;;2.63;;
1054;SDS011;516;51.482;7.120;2023-07-29T08:22:41;3.30;;;3.00;;
1054;SDS011;516;51.482;7.120;2023-07-29T08:28:26;3.83;;;3.53;;
1054;SDS011;516;51.482;7.120;2023-07-29T08:34:15;4.13;;;3.90;;
1054;SDS011;516;51.482;7.120;2023-07-29T08:40:03;5.20;;;4.90;;
1054;SDS011;516;51.482;7.120;2023-07-29T08:45:51;4.70;;;4.40;;
1054;SDS011;516;51.482;7.120;2023-07-29T08:51:44;5.43;;;5.00;;
1054;SDS011;516;51.482;7.120;2023-07-29T08:57:34;5.50;;;5.20;;
1054;SDS011;516;51.482;7.120;2023-07-29T09:03:22;5.37;;;5.07;;
1054;SDS011;516;51.482;7.120;2023-07-29T09:09:10;5.90;;;5.50;;
1054;SDS011;516;51.482;7.120;2023-07-29T09:14:58;5.13;;;4.80;;
1054;SDS011;516;51.482;7.120;2023-07-29T09:20:47;4.90;;;4.60;;
1054;SDS011;516;51.482;7.120;2023-07-29T09:36:20;5.10;;;4.80;;
1054;SDS011;516;51.482;7.120;2023-07-29T09:42:11;5.20;;;4.90;;
1054;SDS011;516;51.482;7.120;2023-07-29T09:48:04;5.00;;;4.80;;
1054;SDS011;516;51.482;7.120;2023-07-29T09:53:56;5.43;;;5.03;;
1054;SDS011;516;51.482;7.120;2023-07-29T09:59:54;5.70;;;5.30;;
1054;SDS011;516;51.482;7.120;2023-07-29T10:06:20;4.87;;;4.50;;
1054;SDS011;516;51.482;7.120;2023-07-29T10:12:08;5.20;;;4.90;;
1054;SDS011;516;51.482;7.120;2023-07-29T10:17:56;4.50;;;4.30;;
1054;SDS011;516;51.482;7.120;2023-07-29T10:23:46;5.10;;;4.80;;
1054;SDS011;516;51.482;7.120;2023-07-29T10:33:01;5.00;;;4.80;;
1054;SDS011;516;51.482;7.120;2023-07-29T10:38:50;5.33;;;5.07;;
1054;SDS011;516;51.482;7.120;2023-07-29T10:50:33;6.10;;;5.70;;
1054;SDS011;516;51.482;7.120;2023-07-29T10:56:27;5.40;;;5.10;;
1054;SDS011;516;51.482;7.120;2023-07-29T11:02:19;5.63;;;5.33;;
1054;SDS011;516;51.482;7.120;2023-07-29T11:08:20;6.33;;;6.03;;
1054;SDS011;516;51.482;7.120;2023-07-29T11:14:45;6.20;;;5.90;;
1054;SDS011;516;51.482;7.120;2023-07-29T11:20:33;6.10;;;5.80;;
1054;SDS011;516;51.482;7.120;2023-07-29T11:26:21;5.90;;;5.67;;
1054;SDS011;516;51.482;7.120;2023-07-29T11:32:09;6.57;;;6.07;;
1054;SDS011;516;51.482;7.120;2023-07-29T11:37:57;6.10;;;5.80;;
1054;SDS011;516;51.482;7.120;2023-07-29T11:43:44;5.70;;;5.50;;
1054;SDS011;516;51.482;7.120;2023-07-29T11:49:32;6.23;;;5.93;;
1054;SDS011;516;51.482;7.120;2023-07-29T11:55:20;6.00;;;5.70;;
1054;SDS011;516;51.482;7.120;2023-07-29T12:01:08;6.37;;;5.77;;
1054;SDS011;516;51.482;7.120;2023-07-29T12:06:57;6.47;;;6.07;;
1054;SDS011;516;51.482;7.120;2023-07-29T12:12:48;6.20;;;5.90;;
1054;SDS011;516;51.482;7.120;2023-07-29T12:18:37;6.40;;;6.10;;
1054;SDS011;516;51.482;7.120;2023-07-29T12:24:24;7.07;;;6.67;;
1054;SDS011;516;51.482;7.120;2023-07-29T12:33:35;6.90;;;6.30;;
1054;SDS011;516;51.482;7.120;2023-07-29T12:39:25;7.00;;;6.70;;
1054;SDS011;516;51.482;7.120;2023-07-29T12:45:17;7.20;;;6.70;;
1054;SDS011;516;51.482;7.120;2023-07-29T12:51:05;7.43;;;7.10;;
1054;SDS011;516;51.482;7.120;2023-07-29T12:56:52;6.90;;;6.50;;
1054;SDS011;516;51.482;7.120;2023-07-29T13:02:40;6.90;;;6.60;;
1054;SDS011;516;51.482;7.120;2023-07-29T13:08:29;6.93;;;6.63;;
1054;SDS011;516;51.482;7.120;2023-07-29T13:14:18;7.53;;;7.13;;
1054;SDS011;516;51.482;7.120;2023-07-29T13:20:06;7.53;;;7.13;;
1054;SDS011;516;51.482;7.120;2023-07-29T13:25:54;7.77;;;7.27;;
1054;SDS011;516;51.482;7.120;2023-07-29T13:31:27;7.33;;;6.93;;
1054;SDS011;516;51.482;7.120;2023-07-29T13:37:15;7.00;;;6.57;;
1054;SDS011;516;51.482;7.120;2023-07-29T13:43:04;7.33;;;6.80;;
1054;SDS011;516;51.482;7.120;2023-07-29T13:48:51;7.10;;;6.80;;
1054;SDS011;516;51.482;7.120;2023-07-29T13:54:39;6.63;;;6.33;;
1054;SDS011;516;51.482;7.120;2023-07-29T14:00:26;6.77;;;6.40;;
1054;SDS011;516;51.482;7.120;2023-07-29T14:06:14;5.70;;;5.40;;
1054;SDS011;516;51.482;7.120;2023-07-29T14:12:02;5.00;;;4.60;;
1054;SDS011;516;51.482;7.120;2023-07-29T14:17:50;3.97;;;3.20;;
1054;SDS011;516;51.482;7.120;2023-07-29T14:23:37;3.40;;;2.87;;
1054;SDS011;516;51.482;7.120;2023-07-29T14:39:25;4.47;;;2.40;;
1054;SDS011;516;51.482;7.120;2023-07-29T14:45:12;3.40;;;1.77;;
1054;SDS011;516;51.482;7.120;2023-07-29T14:51:00;3.40;;;2.07;;
1054;SDS011;516;51.482;7.120;2023-07-29T14:56:48;2.30;;;2.10;;
1054;SDS011;516;51.482;7.120;2023-07-29T15:02:35;4.33;;;3.80;;
1054;SDS011;516;51.482;7.120;2023-07-29T15:08:23;3.80;;;3.50;;
1054;SDS011;516;51.482;7.120;2023-07-29T15:14:11;2.93;;;2.63;;
1054;SDS011;516;51.482;7.120;2023-07-29T15:19:59;3.10;;;2.80;;
1054;SDS011;516;51.482;7.120;2023-07-29T15:25:47;3.40;;;2.50;;
1054;SDS011;516;51.482;7.120;2023-07-29T15:31:32;3.33;;;2.60;;
1054;SDS011;516;51.482;7.120;2023-07-29T15:37:21;4.47;;;2.93;;
1054;SDS011;516;51.482;7.120;2023-07-29T15:43:09;5.00;;;3.17;;
1054;SDS011;516;51.482;7.120;2023-07-29T15:48:38;3.93;;;2.80;;
1054;SDS011;516;51.482;7.120;2023-07-29T15:54:26;4.00;;;3.60;;
1054;SDS011;516;51.482;7.120;2023-07-29T16:00:13;5.30;;;4.43;;
1054;SDS011;516;51.482;7.120;2023-07-29T16:06:01;4.87;;;4.47;;
1054;SDS011;516;51.482;7.120;2023-07-29T16:11:50;4.60;;;4.30;;
1054;SDS011;516;51.482;7.120;2023-07-29T16:17:38;4.40;;;4.00;;
1054;SDS011;516;51.482;7.120;2023-07-29T16:23:26;4.43;;;4.03;;
1054;SDS011;516;51.482;7.120;2023-07-29T16:35:58;7.30;;;6.60;;
1054;SDS011;516;51.482;7.120;2023-07-29T16:41:48;2.60;;;2.40;;
1054;SDS011;516;51.482;7.120;2023-07-29T16:47:35;3.30;;;2.93;;
1054;SDS011;516;51.482;7.120;2023-07-29T16:53:25;2.83;;;2.60;;
1054;SDS011;516;51.482;7.120;2023-07-29T16:59:14;2.63;;;2.40;;
1054;SDS011;516;51.482;7.120;2023-07-29T17:05:02;3.07;;;2.87;;
1054;SDS011;516;51.482;7.120;2023-07-29T17:10:51;4.27;;;2.73;;
1054;SDS011;516;51.482;7.120;2023-07-29T17:16:39;2.73;;;2.30;;
1054;SDS011;516;51.482;7.120;2023-07-29T17:22:26;2.60;;;2.40;;
1054;SDS011;516;51.482;7.120;2023-07-29T17:28:14;4.00;;;3.27;;
1054;SDS011;516;51.482;7.120;2023-07-29T17:34:01;7.33;;;4.70;;
1054;SDS011;516;51.482;7.120;2023-07-29T17:43:11;2.93;;;2.63;;
1054;SDS011;516;51.482;7.120;2023-07-29T17:48:59;3.37;;;3.07;;
1054;SDS011;516;51.482;7.120;2023-07-29T17:54:47;5.20;;;4.70;;
1054;SDS011;516;51.482;7.120;2023-07-29T18:00:35;4.30;;;3.10;;
1054;SDS011;516;51.482;7.120;2023-07-29T18:06:23;3.53;;;3.23;;
1054;SDS011;516;51.482;7.120;2023-07-29T18:12:10;4.53;;;3.27;;
1054;SDS011;516;51.482;7.120;2023-07-29T18:17:58;4.10;;;3.47;;
1054;SDS011;516;51.482;7.120;2023-07-29T18:23:47;3.90;;;3.27;;
1054;SDS011;516;51.482;7.120;2023-07-29T18:29:35;3.63;;;3.13;;
1054;SDS011;516;51.482;7.120;2023-07-29T18:35:17;2.80;;;2.00;;
1054;SDS011;516;51.482;7.120;2023-07-29T18:41:04;2.90;;;2.33;;
1054;SDS011;516;51.482;7.120;2023-07-29T18:46:52;3.03;;;2.50;;
1054;SDS011;516;51.482;7.120;2023-07-29T18:52:40;2.80;;;2.10;;
1054;SDS011;516;51.482;7.120;2023-07-29T18:58:28;3.10;;;1.80;;
1054;SDS011;516;51.482;7.120;2023-07-29T19:04:15;3.73;;;1.90;;
1054;SDS011;516;51.482;7.120;2023-07-29T19:10:03;4.30;;;2.43;;
1054;SDS011;516;51.482;7.120;2023-07-29T19:15:51;3.13;;;2.37;;
1054;SDS011;516;51.482;7.120;2023-07-29T19:21:41;4.47;;;2.53;;
1054;SDS011;516;51.482;7.120;2023-07-29T19:27:28;8.53;;;3.40;;
1054;SDS011;516;51.482;7.120;2023-07-29T19:43:09;4.77;;;3.13;;
1054;SDS011;516;51.482;7.120;2023-07-29T19:48:57;4.77;;;3.90;;
1054;SDS011;516;51.482;7.120;2023-07-29T19:54:45;8.97;;;3.90;;
1054;SDS011;516;51.482;7.120;2023-07-29T20:00:33;4.63;;;4.10;;
1054;SDS011;516;51.482;7.120;2023-07-29T20:06:21;5.00;;;3.80;;
1054;SDS011;516;51.482;7.120;2023-07-29T20:12:09;6.27;;;4.77;;
1054;SDS011;516;51.482;7.120;2023-07-29T20:17:57;4.30;;;3.90;;
1054;SDS011;516;51.482;7.120;2023-07-29T20:23:45;4.83;;;3.70;;
1054;SDS011;516;51.482;7.120;2023-07-29T20:29:35;5.60;;;4.30;;
1054;SDS011;516;51.482;7.120;2023-07-29T20:35:17;8.47;;;3.43;;
1054;SDS011;516;51.482;7.120;2023-07-29T20:41:04;3.60;;;3.30;;
1054;SDS011;516;51.482;7.120;2023-07-29T20:46:52;8.07;;;4.00;;
1054;SDS011;516;51.482;7.120;2023-07-29T20:52:40;5.80;;;3.90;;
1054;SDS011;516;51.482;7.120;2023-07-29T20:58:28;4.13;;;3.00;;
1054;SDS011;516;51.482;7.120;2023-07-29T21:04:16;4.67;;;3.77;;
1054;SDS011;516;51.482;7.120;2023-07-29T21:10:03;4.77;;;4.10;;
1054;SDS011;516;51.482;7.120;2023-07-29T21:15:52;4.60;;;4.20;;
1054;SDS011;516;51.482;7.120;2023-07-29T21:21:40;4.30;;;3.87;;
1054;SDS011;516;51.482;7.120;2023-07-29T21:27:28;6.30;;;5.10;;
1054;SDS011;516;51.482;7.120;2023-07-29T21:43:09;7.63;;;4.80;;
1054;SDS011;516;51.482;7.120;2023-07-29T21:48:56;5.40;;;4.60;;
1054;SDS011;516;51.482;7.120;2023-07-29T21:54:25;5.60;;;4.70;;
1054;SDS011;516;51.482;7.120;2023-07-29T22:00:13;6.03;;;4.83;;
1054;SDS011;516;51.482;7.120;2023-07-29T22:06:04;7.87;;;4.80;;
1054;SDS011;516;51.482;7.120;2023-07-29T22:11:52;6.27;;;5.10;;
1054;SDS011;516;51.482;7.120;2023-07-29T22:17:40;6.10;;;5.50;;
1054;SDS011;516;51.482;7.120;2023-07-29T22:23:28;7.50;;;6.17;;
1054;SDS011;516;51.482;7.120;2023-07-29T22:29:16;8.53;;;4.90;;
1054;SDS011;516;51.482;7.120;2023-07-29T22:35:04;8.87;;;4.73;;
1054;SDS011;516;51.482;7.120;2023-07-29T22:40:52;6.00;;;5.40;;
1054;SDS011;516;51.482;7.120;2023-07-29T22:46:41;6.00;;;5.40;;
1054;SDS011;516;51.482;7.120;2023-07-29T22:52:32;12.07;;;5.70;;
1054;SDS011;516;51.482;7.120;2023-07-29T22:58:20;5.70;;;4.90;;
1054;SDS011;516;51.482;7.120;2023-07-29T23:04:08;10.33;;;6.03;;
1054;SDS011;516;51.482;7.120;2023-07-29T23:09:56;5.93;;;4.60;;
1054;SDS011;516;51.482;7.120;2023-07-29T23:15:43;7.90;;;5.73;;
1054;SDS011;516;51.482;7.120;2023-07-29T23:21:31;9.17;;;5.23;;
1054;SDS011;516;51.482;7.120;2023-07-29T23:27:19;9.40;;;6.30;;
1054;SDS011;516;51.482;7.120;2023-07-29T23:43:27;7.57;;;5.83;;
1054;SDS011;516;51.482;7.120;2023-07-29T23:49:14;13.57;;;6.30;;
1054;SDS011;516;51.482;7.120;2023-07-29T23:55:02;20.20;;;6.10;;
